Time;durP1;ratioP1;P1;durP2;ratioP2;P2;SDS_P1;SDS_P2;PMS_P1;PMS_P2;Temp;Humidity;BMP_temperature;BMP_pressure;BME280_temperature;BME280_humidity;BME280_pressure;Samples;Min_cycle;Max_cycle;Signal;HPM_P1;HPM_P2
2021/08/06 00:02:24;;;;;;;0.40;0.30;;;15.30;99.90;;;;;;5093698;28;20455;-75
2021/08/06 00:04:49;;;;;;;0.40;0.30;;;15.50;99.90;;;;;;5093944;28;20835;-76
2021/08/06 00:07:15;;;;;;;0.40;0.20;;;15.60;99.90;;;;;;5093863;28;20434;-76
2021/08/06 00:09:41;;;;;;;0.40;0.20;;;15.50;99.90;;;;;;5092921;28;20379;-77
2021/08/06 00:12:10;;;;;;;0.40;0.30;;;15.50;99.90;;;;;;5094078;28;20389;-76
2021/08/06 00:14:36;;;;;;;0.40;0.30;;;15.70;99.90;;;;;;5092870;28;20378;-76
2021/08/06 00:17:02;;;;;;;0.40;0.20;;;15.60;99.90;;;;;;5093353;28;20829;-77
2021/08/06 00:19:28;;;;;;;0.40;0.20;;;15.60;99.90;;;;;;5092144;28;20418;-77
2021/08/06 00:21:53;;;;;;;0.40;0.20;;;15.60;99.90;;;;;;5093260;28;20375;-77
2021/08/06 00:24:19;;;;;;;0.40;0.20;;;15.80;99.90;;;;;;5093327;28;20788;-77
2021/08/06 00:26:45;;;;;;;0.40;0.20;;;15.80;99.90;;;;;;5074758;28;20378;-75
2021/08/06 00:29:11;;;;;;;0.40;0.20;;;15.70;99.90;;;;;;5093524;28;20463;-76
2021/08/06 00:31:37;;;;;;;0.40;0.20;;;15.70;99.90;;;;;;5092747;28;20478;-77
2021/08/06 00:34:03;;;;;;;0.40;0.30;;;15.50;99.90;;;;;;5093622;28;20512;-76
2021/08/06 00:36:29;;;;;;;0.40;0.20;;;15.80;99.90;;;;;;5092661;28;20370;-76
2021/08/06 00:38:54;;;;;;;0.40;0.20;;;15.70;99.90;;;;;;5093231;28;20406;-76
2021/08/06 00:41:20;;;;;;;0.40;0.20;;;15.70;99.90;;;;;;5092969;28;20469;-77
2021/08/06 00:43:46;;;;;;;0.40;0.20;;;16.00;99.90;;;;;;5092609;28;20382;-76
2021/08/06 00:46:16;;;;;;;0.40;0.20;;;15.80;99.90;;;;;;5092914;28;20377;-77
2021/08/06 00:48:43;;;;;;;0.40;0.20;;;16.00;99.90;;;;;;5092156;28;20423;-76
2021/08/06 00:51:09;;;;;;;0.40;0.20;;;15.80;99.90;;;;;;5093089;28;20374;-76
2021/08/06 00:53:39;;;;;;;0.40;0.20;;;15.70;99.90;;;;;;5092551;28;20386;-77
2021/08/06 00:56:07;;;;;;;0.40;0.20;;;16.00;99.90;;;;;;5092845;28;20382;-76
2021/08/06 00:58:33;;;;;;;0.40;0.20;;;15.90;99.90;;;;;;5091929;28;20402;-76
2021/08/06 01:00:58;;;;;;;0.40;0.20;;;15.70;99.90;;;;;;5092869;28;20465;-76
2021/08/06 01:03:26;;;;;;;0.40;0.20;;;15.80;99.90;;;;;;5092937;28;20410;-76
2021/08/06 01:06:23;;;;;;;0.40;0.20;;;15.70;99.90;;;;;;5092639;28;20388;-77
2021/08/06 01:09:02;;;;;;;0.40;0.20;;;15.80;99.90;;;;;;5091985;28;20473;-76
2021/08/06 01:11:30;;;;;;;0.40;0.28;;;15.80;99.90;;;;;;5091816;28;20787;-77
2021/08/06 01:13:57;;;;;;;0.40;0.20;;;15.70;99.90;;;;;;5074537;28;20791;-77
2021/08/06 01:16:29;;;;;;;0.40;0.30;;;15.90;99.90;;;;;;5092417;28;20473;-76
2021/08/06 01:19:33;;;;;;;0.40;0.20;;;15.70;99.90;;;;;;5092515;28;20412;-76
2021/08/06 01:22:20;;;;;;;0.40;0.20;;;15.90;99.90;;;;;;5092632;28;20453;-77
2021/08/06 01:24:53;;;;;;;0.40;0.20;;;15.80;99.90;;;;;;5091642;28;20769;-77
2021/08/06 01:27:21;;;;;;;0.40;0.20;;;15.90;99.90;;;;;;5092465;28;20754;-77
2021/08/06 01:29:46;;;;;;;0.40;0.30;;;16.00;99.90;;;;;;5091456;28;20677;-77
2021/08/06 01:32:12;;;;;;;0.40;0.20;;;15.90;99.90;;;;;;5073603;28;20394;-77
2021/08/06 01:34:38;;;;;;;0.40;0.20;;;16.20;99.90;;;;;;5091642;28;20448;-76
2021/08/06 01:37:03;;;;;;;0.40;0.20;;;15.90;99.90;;;;;;5092178;28;20382;-77
2021/08/06 01:39:29;;;;;;;0.40;0.20;;;15.90;99.90;;;;;;5091433;28;20424;-77
2021/08/06 01:42:23;;;;;;;0.40;0.20;;;16.00;99.90;;;;;;5092061;28;20448;-77
2021/08/06 01:44:52;;;;;;;0.40;0.20;;;15.90;99.90;;;;;;5091492;28;20465;-76
2021/08/06 01:47:25;;;;;;;0.40;0.30;;;15.90;99.90;;;;;;5092008;28;20367;-77
2021/08/06 01:50:00;;;;;;;0.40;0.20;;;15.90;99.90;;;;;;5107150;28;20386;-77
2021/08/06 01:52:31;;;;;;;0.40;0.30;;;15.90;99.90;;;;;;5091813;28;20382;-77
2021/08/06 01:55:02;;;;;;;0.40;0.20;;;15.90;99.90;;;;;;5091992;28;20377;-77
2021/08/06 01:57:30;;;;;;;0.40;0.25;;;15.90;99.90;;;;;;5091769;28;20422;-77
2021/08/06 01:59:57;;;;;;;0.40;0.20;;;16.10;99.90;;;;;;5091542;28;20804;-77
2021/08/06 02:02:23;;;;;;;0.40;0.30;;;16.10;99.90;;;;;;5091415;28;20461;-77
2021/08/06 02:04:49;;;;;;;0.40;0.20;;;16.00;99.90;;;;;;5091165;28;20799;-77
2021/08/06 02:07:16;;;;;;;0.40;0.20;;;16.10;99.90;;;;;;5091567;28;20382;-77
2021/08/06 02:09:43;;;;;;;0.40;0.30;;;16.00;99.90;;;;;;5090783;28;20867;-77
2021/08/06 02:12:08;;;;;;;0.40;0.30;;;16.30;99.90;;;;;;5091623;28;20416;-77
2021/08/06 02:14:35;;;;;;;0.40;0.30;;;16.00;99.90;;;;;;5072942;28;20489;-77
2021/08/06 02:17:01;;;;;;;0.40;0.30;;;16.20;99.90;;;;;;5091731;28;20394;-77
2021/08/06 02:19:29;;;;;;;0.40;0.20;;;16.10;99.90;;;;;;5091505;28;20405;-77
2021/08/06 02:21:57;;;;;;;0.40;0.30;;;16.10;99.90;;;;;;5091528;28;20439;-75
2021/08/06 02:24:24;;;;;;;0.40;0.30;;;16.20;99.90;;;;;;5091441;28;20386;-77
2021/08/06 02:26:52;;;;;;;0.40;0.20;;;16.30;99.90;;;;;;5090506;28;20402;-77
2021/08/06 02:29:19;;;;;;;0.40;0.20;;;16.30;99.90;;;;;;5091109;28;20420;-76
2021/08/06 02:31:47;;;;;;;0.40;0.20;;;16.60;99.90;;;;;;5090687;28;20374;-77
2021/08/06 02:34:14;;;;;;;0.40;0.20;;;17.40;99.90;;;;;;5073237;28;20473;-76
2021/08/06 02:36:40;;;;;;;0.40;0.20;;;17.60;99.90;;;;;;5072507;28;20727;-75
2021/08/06 02:39:17;;;;;;;0.40;0.20;;;17.50;99.90;;;;;;5090649;28;20409;-80
2021/08/06 02:41:43;;;;;;;0.40;0.20;;;17.40;99.90;;;;;;5092267;28;20434;-77
2021/08/06 02:44:12;;;;;;;0.40;0.30;;;17.50;99.90;;;;;;5097941;28;20374;-85
2021/08/06 02:46:37;;;;;;;0.40;0.20;;;17.10;99.90;;;;;;5096899;28;20746;-76
2021/08/06 02:49:03;;;;;;;0.40;0.30;;;16.70;99.90;;;;;;5097647;28;20424;-76
2021/08/06 02:51:29;;;;;;;0.40;0.20;;;16.50;99.90;;;;;;5097600;28;20793;-77
2021/08/06 02:53:54;;;;;;;0.40;0.30;;;16.40;99.90;;;;;;5096902;28;20370;-76
2021/08/06 02:56:20;;;;;;;0.40;0.20;;;16.20;99.90;;;;;;5097880;28;20431;-77
2021/08/06 02:58:46;;;;;;;0.40;0.20;;;16.20;99.90;;;;;;5096947;28;20406;-76
2021/08/06 03:01:11;;;;;;;0.40;0.30;;;16.10;99.90;;;;;;5097458;28;20389;-73
2021/08/06 03:03:37;;;;;;;0.40;0.30;;;16.20;99.90;;;;;;5097033;28;20384;-75
2021/08/06 03:06:02;;;;;;;0.40;0.30;;;16.10;99.90;;;;;;5097579;28;20428;-77
2021/08/06 03:08:28;;;;;;;0.40;0.20;;;15.80;99.90;;;;;;5097927;28;20767;-77
2021/08/06 03:10:54;;;;;;;0.40;0.20;;;15.70;99.90;;;;;;5096980;28;20420;-75
2021/08/06 03:13:19;;;;;;;0.40;0.20;;;15.80;99.90;;;;;;5097518;28;20704;-78
2021/08/06 03:15:45;;;;;;;0.40;0.20;;;15.90;99.90;;;;;;5096538;28;20951;-75
2021/08/06 03:18:12;;;;;;;0.40;0.30;;;15.90;99.90;;;;;;5112822;28;20413;-76
2021/08/06 03:20:38;;;;;;;0.40;0.20;;;15.70;99.90;;;;;;5096743;28;20385;-76
2021/08/06 03:23:04;;;;;;;0.40;0.30;;;15.80;99.90;;;;;;5113101;28;20442;-76
2021/08/06 03:25:29;;;;;;;0.40;0.20;;;15.80;99.90;;;;;;5097179;28;20846;-77
2021/08/06 03:27:56;;;;;;;0.40;0.20;;;15.90;99.90;;;;;;5096584;28;20738;-80
2021/08/06 03:30:22;;;;;;;0.40;0.20;;;16.20;99.90;;;;;;5097128;28;20438;-76
2021/08/06 03:32:48;;;;;;;0.40;0.20;;;16.00;99.90;;;;;;5096481;28;20942;-76
2021/08/06 03:35:13;;;;;;;0.40;0.30;;;15.80;99.90;;;;;;5097436;28;20449;-77
2021/08/06 03:37:40;;;;;;;0.40;0.30;;;16.10;99.90;;;;;;5096767;28;20448;-77
2021/08/06 03:40:07;;;;;;;0.40;0.20;;;16.10;99.90;;;;;;5097339;28;20385;-77
2021/08/06 03:42:33;;;;;;;0.40;0.20;;;16.10;99.90;;;;;;5097412;28;20473;-78
2021/08/06 03:44:58;;;;;;;0.40;0.30;;;16.20;99.90;;;;;;5096714;28;20457;-76
2021/08/06 03:47:24;;;;;;;0.40;0.30;;;16.20;99.90;;;;;;5097072;28;20382;-77
2021/08/06 03:49:50;;;;;;;0.40;0.20;;;16.50;99.90;;;;;;5096966;28;20386;-78
2021/08/06 03:52:15;;;;;;;0.40;0.20;;;16.30;99.90;;;;;;5096723;28;20401;-79
2021/08/06 03:54:41;;;;;;;0.40;0.30;;;16.50;99.90;;;;;;5092494;28;20393;-78
2021/08/06 03:57:07;;;;;;;0.40;0.20;;;16.10;99.90;;;;;;5093555;28;20370;-78
2021/08/06 03:59:33;;;;;;;0.40;0.20;;;16.30;99.90;;;;;;5093674;28;20422;-76
2021/08/06 04:01:58;;;;;;;0.40;0.20;;;16.20;99.90;;;;;;5093467;28;20386;-76
2021/08/06 04:04:24;;;;;;;0.40;0.20;;;16.30;99.90;;;;;;5094074;28;20787;-79
2021/08/06 04:06:50;;;;;;;0.40;0.20;;;16.10;99.90;;;;;;5093459;28;20374;-76
2021/08/06 04:09:17;;;;;;;0.40;0.20;;;16.20;99.90;;;;;;5093654;28;20385;-79
2021/08/06 04:11:43;;;;;;;0.40;0.20;;;16.40;99.90;;;;;;5093357;28;20429;-81
2021/08/06 04:14:09;;;;;;;0.40;0.20;;;16.60;99.90;;;;;;5093632;28;20382;-80
2021/08/06 04:16:35;;;;;;;0.40;0.20;;;16.60;99.90;;;;;;5093903;28;20378;-81
2021/08/06 04:19:01;;;;;;;0.40;0.30;;;16.50;99.90;;;;;;5093112;28;20516;-81
2021/08/06 04:21:27;;;;;;;0.40;0.30;;;16.70;99.90;;;;;;5093572;28;20855;-82
2021/08/06 04:23:53;;;;;;;0.40;0.20;;;16.70;99.90;;;;;;5092836;28;20414;-81
2021/08/06 04:26:18;;;;;;;0.40;0.20;;;16.50;99.90;;;;;;5093565;28;20374;-79
2021/08/06 04:28:44;;;;;;;0.40;0.20;;;16.50;99.90;;;;;;5092667;28;20478;-78
2021/08/06 04:31:10;;;;;;;0.40;0.20;;;16.70;99.90;;;;;;5093461;28;20461;-83
2021/08/06 04:33:35;;;;;;;0.40;0.20;;;16.70;99.90;;;;;;5093509;28;20439;-84
2021/08/06 04:36:01;;;;;;;0.40;0.30;;;16.60;99.90;;;;;;5092803;28;20374;-83
2021/08/06 04:38:27;;;;;;;0.40;0.20;;;17.00;99.90;;;;;;5093387;28;20780;-82
2021/08/06 04:40:52;;;;;;;0.40;0.20;;;17.00;99.90;;;;;;5092766;28;20416;-82
2021/08/06 04:43:21;;;;;;;0.40;0.30;;;16.90;99.90;;;;;;5093290;28;20460;-79
2021/08/06 04:45:48;;;;;;;0.40;0.20;;;17.10;99.90;;;;;;5092819;28;20452;-79
2021/08/06 04:48:20;;;;;;;0.40;0.30;;;16.80;99.90;;;;;;5092952;28;20374;-80
2021/08/06 04:50:46;;;;;;;0.40;0.30;;;17.00;99.90;;;;;;5092759;28;20378;-78
2021/08/06 04:53:11;;;;;;;0.40;0.30;;;16.80;99.90;;;;;;5092924;28;20716;-80
2021/08/06 04:55:37;;;;;;;0.40;0.20;;;17.00;99.90;;;;;;5093108;28;20377;-77
2021/08/06 04:58:04;;;;;;;0.40;0.30;;;17.10;99.90;;;;;;5092396;28;20402;-80
2021/08/06 05:00:29;;;;;;;0.40;0.30;;;17.00;99.90;;;;;;5074848;28;20489;-81
2021/08/06 05:02:55;;;;;;;0.40;0.20;;;16.70;99.90;;;;;;5092174;28;20469;-79
2021/08/06 05:05:21;;;;;;;0.40;0.30;;;16.90;99.90;;;;;;5092800;28;20417;-78
2021/08/06 05:07:54;;;;;;;0.40;0.30;;;16.90;99.90;;;;;;5092502;28;20382;-81
2021/08/06 05:10:22;;;;;;;0.40;0.20;;;17.00;99.90;;;;;;5074537;28;20416;-81
2021/08/06 05:12:48;;;;;;;0.40;0.30;;;17.00;99.90;;;;;;5074109;28;20395;-80
2021/08/06 05:15:14;;;;;;;0.40;0.30;;;17.10;99.90;;;;;;5092470;28;20803;-80
2021/08/06 05:17:40;;;;;;;0.40;0.30;;;16.90;99.90;;;;;;5074440;28;20439;-79
2021/08/06 05:20:06;;;;;;;0.40;0.30;;;16.30;99.90;;;;;;5074112;28;20428;-80
2021/08/06 05:22:32;;;;;;;0.40;0.20;;;17.30;99.90;;;;;;5092853;28;20385;-75
2021/08/06 05:24:58;;;;;;;0.40;0.20;;;17.50;99.90;;;;;;5091874;28;20379;-76
2021/08/06 05:27:24;;;;;;;0.40;0.30;;;17.60;99.90;;;;;;5092594;28;20378;-76
2021/08/06 05:29:50;;;;;;;0.40;0.30;;;17.40;99.90;;;;;;5091838;28;20406;-77
2021/08/06 05:32:15;;;;;;;0.40;0.30;;;17.30;99.90;;;;;;5092570;28;20392;-78
2021/08/06 05:34:41;;;;;;;0.40;0.20;;;17.50;99.90;;;;;;5091785;28;20766;-77
2021/08/06 05:37:07;;;;;;;0.40;0.20;;;17.30;99.90;;;;;;5092318;28;20374;-76
2021/08/06 05:39:33;;;;;;;0.40;0.20;;;17.30;99.90;;;;;;5091894;28;20805;-75
2021/08/06 05:41:59;;;;;;;0.40;0.30;;;17.40;99.90;;;;;;5091430;28;20460;-76
2021/08/06 05:44:24;;;;;;;0.40;0.30;;;17.40;99.90;;;;;;5091999;28;20378;-81
2021/08/06 05:46:50;;;;;;;0.40;0.30;;;17.40;99.90;;;;;;5091578;28;20381;-82
2021/08/06 05:49:16;;;;;;;0.40;0.20;;;17.40;99.90;;;;;;5073929;28;20396;-76
2021/08/06 05:51:42;;;;;;;0.40;0.30;;;17.40;99.90;;;;;;5073979;28;20801;-82
2021/08/06 05:54:07;;;;;;;0.40;0.20;;;17.90;99.90;;;;;;5091867;28;20403;-86
2021/08/06 05:56:33;;;;;;;0.40;0.20;;;17.30;99.90;;;;;;5092008;28;20374;-87
2021/08/06 05:58:59;;;;;;;0.40;0.20;;;17.50;99.90;;;;;;5091089;28;20778;-86
2021/08/06 06:01:24;;;;;;;0.40;0.20;;;17.60;99.90;;;;;;5091953;28;20381;-80
2021/08/06 06:03:50;;;;;;;0.40;0.30;;;17.40;99.90;;;;;;5091128;28;20374;-79
2021/08/06 06:06:16;;;;;;;0.40;0.20;;;17.80;99.90;;;;;;5091882;28;20374;-81
2021/08/06 06:08:41;;;;;;;0.40;0.20;;;17.50;99.90;;;;;;5091543;28;20386;-84
2021/08/06 06:11:07;;;;;;;0.40;0.20;;;17.80;99.90;;;;;;5091170;28;20375;-77
2021/08/06 06:13:33;;;;;;;0.40;0.30;;;17.50;99.90;;;;;;5091753;28;20375;-80
2021/08/06 06:15:58;;;;;;;0.40;0.30;;;17.50;99.90;;;;;;5090732;28;20370;-77
2021/08/06 06:18:24;;;;;;;0.40;0.30;;;17.50;99.90;;;;;;5091555;28;20832;-77
2021/08/06 06:20:51;;;;;;;0.40;0.30;;;17.60;99.90;;;;;;5091108;28;20423;-79
2021/08/06 06:23:17;;;;;;;0.40;0.30;;;17.50;99.90;;;;;;5091680;28;20712;-79
2021/08/06 06:25:44;;;;;;;0.40;0.20;;;17.30;99.90;;;;;;5091582;28;20473;-81
2021/08/06 06:28:10;;;;;;;0.40;0.20;;;17.50;99.90;;;;;;5073208;28;20414;-78
2021/08/06 06:30:36;;;;;;;0.40;0.30;;;17.50;99.90;;;;;;5091563;28;20395;-78
2021/08/06 06:33:04;;;;;;;0.40;0.28;;;17.30;99.90;;;;;;5090918;28;20396;-80
2021/08/06 06:35:30;;;;;;;0.40;0.20;;;17.50;99.90;;;;;;5073216;28;20386;-76
2021/08/06 06:37:57;;;;;;;0.40;0.20;;;17.70;99.90;;;;;;5072598;28;20410;-75
2021/08/06 06:40:24;;;;;;;0.40;0.30;;;17.60;99.90;;;;;;5091236;28;20731;-77
2021/08/06 06:42:50;;;;;;;0.40;0.30;;;17.70;99.90;;;;;;5090803;28;20719;-75
2021/08/06 06:45:16;;;;;;;0.40;0.20;;;17.90;99.90;;;;;;5091310;28;20374;-74
2021/08/06 06:47:48;;;;;;;0.40;0.30;;;17.90;99.90;;;;;;5091346;28;20396;-76
2021/08/06 06:50:16;;;;;;;0.40;0.20;;;17.70;99.90;;;;;;5073158;28;20545;-76
2021/08/06 06:52:43;;;;;;;0.40;0.30;;;18.00;99.90;;;;;;5091052;28;20401;-77
2021/08/06 06:55:10;;;;;;;0.40;0.20;;;18.20;99.90;;;;;;5090598;28;20389;-76
2021/08/06 06:57:49;;;;;;;0.40;0.30;;;18.20;99.90;;;;;;5090914;28;20379;-73
2021/08/06 07:00:16;;;;;;;0.40;0.30;;;18.30;99.90;;;;;;5091368;28;20410;-74
2021/08/06 07:02:41;;;;;;;0.40;0.30;;;18.30;99.90;;;;;;5090817;28;20386;-73
2021/08/06 07:05:08;;;;;;;0.40;0.30;;;18.30;99.90;;;;;;5090830;28;20434;-76
2021/08/06 07:07:34;;;;;;;0.40;0.20;;;18.30;99.90;;;;;;5091036;28;20394;-74
2021/08/06 07:10:00;;;;;;;0.40;0.20;;;18.50;99.90;;;;;;5090160;28;20376;-77
2021/08/06 07:12:26;;;;;;;0.40;0.20;;;18.20;99.90;;;;;;5091041;28;20374;-76
2021/08/06 07:14:51;;;;;;;0.40;0.20;;;18.50;99.90;;;;;;5090128;28;20742;-76
2021/08/06 07:17:19;;;;;;;0.40;0.30;;;18.30;99.90;;;;;;5091303;28;20378;-77
2021/08/06 07:19:45;;;;;;;0.40;0.20;;;18.30;99.90;;;;;;5090930;28;20390;-77
2021/08/06 07:22:11;;;;;;;0.40;0.30;;;18.40;99.90;;;;;;5090074;28;20712;-77
2021/08/06 07:24:37;;;;;;;0.40;0.30;;;18.40;99.90;;;;;;5090634;28;20846;-77
2021/08/06 07:27:03;;;;;;;0.40;0.30;;;18.60;99.90;;;;;;5089919;28;20410;-84
2021/08/06 07:29:28;;;;;;;0.40;0.20;;;18.60;99.90;;;;;;5092247;28;20497;-83
2021/08/06 07:31:54;;;;;;;0.40;0.20;;;18.50;99.90;;;;;;5094132;28;20453;-84
2021/08/06 07:34:20;;;;;;;0.40;0.20;;;18.50;99.90;;;;;;5094867;28;20385;-80
2021/08/06 07:36:45;;;;;;;0.40;0.30;;;16.40;99.90;;;;;;5094529;28;20443;-82
2021/08/06 07:39:11;;;;;;;0.40;0.30;;;19.00;99.90;;;;;;5093909;28;20457;-82
2021/08/06 07:41:37;;;;;;;0.40;0.20;;;18.90;99.90;;;;;;5076294;28;20870;-78
2021/08/06 07:44:03;;;;;;;0.40;0.30;;;18.80;99.90;;;;;;5093643;28;20381;-79
2021/08/06 07:46:29;;;;;;;0.40;0.30;;;19.00;99.90;;;;;;5094166;28;20389;-76
2021/08/06 07:48:54;;;;;;;0.40;0.30;;;18.90;99.90;;;;;;5093558;28;20870;-77
2021/08/06 07:51:20;;;;;;;0.55;0.25;;;18.80;99.90;;;;;;5094382;28;20414;-75
2021/08/06 07:53:46;;;;;;;0.40;0.30;;;19.00;99.90;;;;;;5094349;28;20465;-76
2021/08/06 07:56:13;;;;;;;0.40;0.20;;;18.80;99.90;;;;;;5093936;28;20688;-75
2021/08/06 07:58:39;;;;;;;0.40;0.20;;;19.10;99.90;;;;;;5094123;28;20425;-77
2021/08/06 08:01:05;;;;;;;0.40;0.30;;;19.10;99.90;;;;;;5093252;28;20451;-75
2021/08/06 08:03:33;;;;;;;0.40;0.20;;;19.30;99.90;;;;;;5093926;28;20378;-75
2021/08/06 08:06:00;;;;;;;0.40;0.20;;;19.10;99.90;;;;;;5093037;28;20431;-78
2021/08/06 08:08:26;;;;;;;0.40;0.20;;;19.20;99.90;;;;;;5075427;28;20395;-77
2021/08/06 08:10:52;;;;;;;0.40;0.30;;;19.20;99.90;;;;;;5075107;28;20890;-75
2021/08/06 08:13:18;;;;;;;0.40;0.20;;;18.90;99.90;;;;;;5094021;28;20374;-77
2021/08/06 08:15:44;;;;;;;0.40;0.30;;;19.10;99.90;;;;;;5093558;28;20379;-77
2021/08/06 08:18:09;;;;;;;0.40;0.20;;;19.30;99.90;;;;;;5093010;28;20429;-78
2021/08/06 08:20:35;;;;;;;0.40;0.30;;;19.40;99.90;;;;;;5075525;28;20398;-77
2021/08/06 08:23:01;;;;;;;0.40;0.20;;;19.30;99.90;;;;;;5093196;28;20871;-77
2021/08/06 08:25:27;;;;;;;0.40;0.20;;;19.20;99.90;;;;;;5093581;28;20370;-80
2021/08/06 08:27:52;;;;;;;0.40;0.30;;;19.00;99.90;;;;;;5092827;28;20398;-76
2021/08/06 08:30:20;;;;;;;0.40;0.20;;;19.30;99.90;;;;;;5093091;28;20467;-76
2021/08/06 08:32:46;;;;;;;0.40;0.30;;;19.20;99.90;;;;;;5093216;28;20870;-76
2021/08/06 08:35:11;;;;;;;0.40;0.20;;;19.10;99.90;;;;;;5092774;28;20771;-77
2021/08/06 08:37:37;;;;;;;0.40;0.20;;;19.50;99.90;;;;;;5093423;28;20378;-79
2021/08/06 08:40:05;;;;;;;0.40;0.30;;;19.50;99.90;;;;;;5092367;28;20854;-77
2021/08/06 08:42:31;;;;;;;0.40;0.20;;;19.70;99.90;;;;;;5093265;28;20389;-76
2021/08/06 08:45:01;;;;;;;0.40;0.30;;;19.90;99.90;;;;;;5092732;28;20378;-78
2021/08/06 08:47:27;;;;;;;0.40;0.30;;;20.20;99.90;;;;;;5093272;28;20386;-75
2021/08/06 08:49:54;;;;;;;0.40;0.20;;;20.30;99.90;;;;;;5092511;28;20465;-79
2021/08/06 08:52:21;;;;;;;0.40;0.30;;;20.00;99.90;;;;;;5093167;28;20432;-76
2021/08/06 08:54:48;;;;;;;0.40;0.20;;;19.80;99.90;;;;;;5092904;28;20944;-76
2021/08/06 08:57:21;;;;;;;0.40;0.30;;;19.70;99.90;;;;;;5092365;28;20392;-75
2021/08/06 08:59:47;;;;;;;0.40;0.20;;;20.40;99.90;;;;;;5092686;28;20486;-78
2021/08/06 09:02:14;;;;;;;0.40;0.20;;;19.90;99.90;;;;;;5074144;28;20852;-77
2021/08/06 09:04:40;;;;;;;0.40;0.20;;;20.30;99.90;;;;;;5092936;28;20382;-77
2021/08/06 09:07:06;;;;;;;0.40;0.20;;;19.90;99.90;;;;;;5074090;28;20400;-80
2021/08/06 09:09:32;;;;;;;0.40;0.30;;;20.20;99.90;;;;;;5092679;28;20397;-79
2021/08/06 09:12:09;;;;;;;0.40;0.20;;;20.80;99.90;;;;;;5073952;28;20750;-79
2021/08/06 09:14:36;;;;;;;0.40;0.30;;;20.50;99.90;;;;;;5092657;28;20418;-80
2021/08/06 09:17:13;;;;;;;0.40;0.20;;;20.50;99.90;;;;;;5091997;28;20382;-78
2021/08/06 09:19:42;;;;;;;0.40;0.30;;;20.40;99.90;;;;;;5092762;28;20410;-80
2021/08/06 09:22:17;;;;;;;0.40;0.20;;;20.10;99.90;;;;;;5073737;28;20397;-82
2021/08/06 09:25:09;;;;;;;0.40;0.40;;;20.40;99.90;;;;;;5092756;28;20382;-76
2021/08/06 09:27:38;;;;;;;0.40;0.20;;;20.00;99.90;;;;;;5092191;28;20378;-74
2021/08/06 09:30:10;;;;;;;0.40;0.20;;;20.10;99.90;;;;;;5092112;28;20496;-80
2021/08/06 09:32:47;;;;;;;0.40;0.20;;;20.50;99.90;;;;;;5074383;28;20804;-76
2021/08/06 09:35:19;;;;;;;0.40;0.20;;;20.40;99.90;;;;;;5073568;28;20386;-79
2021/08/06 09:37:45;;;;;;;0.40;0.20;;;20.30;99.90;;;;;;5092074;28;20414;-78
2021/08/06 09:40:14;;;;;;;0.40;0.30;;;19.90;99.90;;;;;;5091638;28;20477;-77
2021/08/06 09:42:50;;;;;;;0.40;0.30;;;20.20;99.90;;;;;;5092033;28;20808;-79
2021/08/06 09:45:17;;;;;;;0.40;0.20;;;20.10;99.90;;;;;;5091644;28;20692;-79
2021/08/06 09:47:45;;;;;;;0.40;0.28;;;20.20;99.90;;;;;;5092068;28;20761;-79
2021/08/06 09:50:16;;;;;;;0.40;0.20;;;20.10;99.90;;;;;;5091462;28;20428;-77
2021/08/06 09:52:45;;;;;;;0.40;0.20;;;20.60;99.90;;;;;;5091407;28;20833;-78
2021/08/06 09:55:19;;;;;;;0.40;0.30;;;20.50;99.90;;;;;;5091461;28;20370;-81
2021/08/06 09:57:45;;;;;;;0.40;0.20;;;20.70;99.90;;;;;;5092142;28;20846;-76
2021/08/06 10:00:16;;;;;;;0.40;0.20;;;20.60;99.90;;;;;;5091062;28;20905;-78
2021/08/06 10:02:42;;;;;;;0.40;0.30;;;20.40;99.90;;;;;;5091918;28;20385;-78
2021/08/06 10:05:14;;;;;;;0.40;0.30;;;20.60;99.90;;;;;;5090987;28;20385;-77
2021/08/06 10:07:46;;;;;;;0.40;0.20;;;20.50;99.90;;;;;;5091910;28;20385;-79
2021/08/06 10:10:15;;;;;;;0.40;0.20;;;20.40;99.90;;;;;;5091256;28;20413;-76
2021/08/06 10:12:41;;;;;;;0.40;0.20;;;20.60;99.90;;;;;;5091694;28;20731;-79
2021/08/06 10:15:07;;;;;;;0.40;0.30;;;20.60;99.90;;;;;;5091129;28;20378;-78
2021/08/06 10:17:34;;;;;;;0.40;0.20;;;20.80;99.90;;;;;;5091139;28;20378;-80
2021/08/06 10:19:59;;;;;;;0.40;0.20;;;20.70;99.90;;;;;;5090691;28;20866;-78
2021/08/06 10:22:25;;;;;;;0.40;0.30;;;21.30;99.90;;;;;;5091460;28;20389;-81
2021/08/06 10:24:53;;;;;;;0.40;0.30;;;21.00;99.90;;;;;;5073413;28;20398;-79
2021/08/06 10:27:22;;;;;;;0.40;0.30;;;21.20;99.90;;;;;;5090759;28;20397;-77
2021/08/06 10:30:10;;;;;;;0.40;0.20;;;21.30;99.90;;;;;;5091192;28;20483;-77
2021/08/06 10:32:38;;;;;;;0.40;0.25;;;20.90;99.90;;;;;;5091468;28;20415;-81
2021/08/06 10:35:08;;;;;;;0.40;0.30;;;21.00;99.90;;;;;;5090738;28;20381;-78
2021/08/06 10:37:54;;;;;;;0.40;0.30;;;21.00;99.90;;;;;;5091079;28;20451;-78
2021/08/06 10:40:32;;;;;;;0.40;0.30;;;21.00;99.90;;;;;;5090361;28;20393;-78
2021/08/06 10:43:18;;;;;;;0.40;0.30;;;21.10;99.90;;;;;;5091262;28;20383;-77
2021/08/06 10:45:51;;;;;;;0.40;0.30;;;21.10;99.90;;;;;;5073208;28;20385;-79
2021/08/06 10:48:32;;;;;;;0.40;0.30;;;20.80;99.90;;;;;;5090579;28;20707;-78
2021/08/06 10:51:16;;;;;;;0.40;0.30;;;21.10;99.90;;;;;;5091313;28;20411;-81
2021/08/06 10:53:46;;;;;;;0.40;0.30;;;20.90;99.90;;;;;;5091066;28;20526;-78
2021/08/06 10:56:32;;;;;;;0.40;0.30;;;21.10;99.90;;;;;;5090618;28;20378;-77
2021/08/06 10:59:11;;;;;;;0.40;0.30;;;21.00;99.50;;;;;;5090818;28;20464;-78
2021/08/06 11:01:45;;;;;;;0.40;0.30;;;21.20;99.90;;;;;;5091333;28;20382;-77
2021/08/06 11:04:13;;;;;;;0.40;0.20;;;20.80;99.40;;;;;;5093925;28;20378;-77
2021/08/06 11:06:47;;;;;;;0.40;0.20;;;20.70;99.90;;;;;;5095085;28;20390;-79
2021/08/06 11:09:28;;;;;;;0.40;0.30;;;21.20;98.10;;;;;;5094526;28;20439;-82
2021/08/06 11:12:10;;;;;;;0.40;0.20;;;20.80;97.00;;;;;;5094977;28;20382;-81
2021/08/06 11:14:36;;;;;;;0.40;0.30;;;20.80;96.60;;;;;;5094948;28;20468;-78
2021/08/06 11:17:15;;;;;;;0.40;0.30;;;20.70;99.10;;;;;;5094867;28;20394;-77
2021/08/06 11:19:43;;;;;;;0.40;0.28;;;21.50;98.10;;;;;;5094869;28;20496;-82
2021/08/06 11:22:20;;;;;;;0.40;0.30;;;21.40;99.60;;;;;;5094023;28;20386;-82
2021/08/06 11:24:49;;;;;;;0.40;0.30;;;21.60;97.60;;;;;;5094672;28;20432;-83
2021/08/06 11:27:17;;;;;;;0.40;0.22;;;21.70;99.30;;;;;;5076077;28;20428;-79
2021/08/06 11:29:57;;;;;;;0.40;0.30;;;21.70;98.20;;;;;;5094237;28;20421;-80
2021/08/06 11:32:23;;;;;;;0.40;0.30;;;21.70;99.90;;;;;;5075979;28;20732;-79
2021/08/06 11:34:58;;;;;;;0.40;0.30;;;21.80;96.60;;;;;;5076428;28;20480;-81
2021/08/06 11:37:52;;;;;;;0.40;0.30;;;21.70;96.70;;;;;;5075842;28;20452;-80
2021/08/06 11:40:20;;;;;;;0.40;0.30;;;22.20;95.00;;;;;;5093974;28;20421;-82
2021/08/06 11:42:46;;;;;;;0.40;0.30;;;22.50;99.90;;;;;;5094474;28;20370;-78
2021/08/06 11:45:15;;;;;;;0.40;0.20;;;22.80;97.40;;;;;;5093590;28;20927;-78
2021/08/06 11:47:50;;;;;;;0.40;0.30;;;23.20;94.40;;;;;;5094419;28;20374;-77
2021/08/06 11:50:20;;;;;;;0.40;0.20;;;23.40;95.30;;;;;;5093780;28;20378;-82
2021/08/06 11:52:49;;;;;;;0.40;0.20;;;24.10;97.10;;;;;;5094405;28;20415;-80
2021/08/06 11:55:17;;;;;;;0.40;0.20;;;24.00;91.60;;;;;;5093640;28;20427;-80
2021/08/06 11:57:49;;;;;;;0.40;0.20;;;24.40;94.40;;;;;;5094099;28;20370;-80
2021/08/06 12:00:23;;;;;;;0.40;0.20;;;24.30;90.80;;;;;;5093818;28;20464;-81
2021/08/06 12:03:09;;;;;;;0.40;0.20;;;24.20;90.40;;;;;;5094426;28;20382;-79
2021/08/06 12:05:38;;;;;;;0.40;0.30;;;24.00;87.40;;;;;;5094274;28;20469;-80
2021/08/06 12:08:43;;;;;;;0.40;0.30;;;23.40;90.90;;;;;;5094075;28;20382;-80
2021/08/06 12:11:17;;;;;;;0.40;0.20;;;23.20;90.30;;;;;;5071353;28;20394;-80
2021/08/06 12:13:54;;;;;;;0.40;0.20;;;23.50;87.30;;;;;;5075587;28;20485;-78
2021/08/06 12:16:25;;;;;;;0.40;0.25;;;23.50;91.00;;;;;;5092847;28;20473;-82
2021/08/06 12:18:59;;;;;;;0.40;0.20;;;23.70;86.60;;;;;;5075345;28;20406;-80
2021/08/06 12:21:36;;;;;;;0.40;0.30;;;23.60;87.30;;;;;;5093228;28;20716;-84
2021/08/06 12:24:12;;;;;;;0.40;0.20;;;23.30;88.10;;;;;;5093781;28;20744;-81
2021/08/06 12:27:02;;;;;;;0.40;0.30;;;23.20;87.10;;;;;;5093819;28;20439;-77
2021/08/06 12:29:29;;;;;;;0.40;0.30;;;23.60;86.40;;;;;;5091674;28;20517;-77
2021/08/06 12:31:56;;;;;;;0.40;0.20;;;23.70;86.70;;;;;;5093616;28;20382;-77
2021/08/06 12:34:23;;;;;;;0.40;0.30;;;23.30;88.00;;;;;;5092566;28;20898;-82
2021/08/06 12:37:13;;;;;;;0.40;0.20;;;23.60;87.20;;;;;;5075432;28;20399;-79
2021/08/06 12:39:47;;;;;;;0.40;0.20;;;23.80;86.80;;;;;;5093088;28;20409;-79
2021/08/06 12:42:25;;;;;;;0.40;0.30;;;23.80;87.10;;;;;;5092911;28;20418;-80
2021/08/06 12:45:07;;;;;;;0.40;0.30;;;24.50;86.00;;;;;;5093382;28;20410;-75
2021/08/06 12:47:44;;;;;;;0.40;0.30;;;24.30;84.00;;;;;;5093393;28;20378;-74
2021/08/06 12:50:31;;;;;;;0.40;0.30;;;23.90;84.00;;;;;;5092688;28;20377;-75
2021/08/06 12:53:06;;;;;;;0.40;0.20;;;23.60;85.60;;;;;;5093311;28;20385;-76
2021/08/06 12:55:33;;;;;;;0.40;0.20;;;23.30;84.70;;;;;;5092884;28;20474;-76
2021/08/06 12:58:03;;;;;;;0.40;0.20;;;23.20;90.20;;;;;;5074908;28;20438;-78